Airfield :
LOGIN :

Register | Disclaimer

   EN    FR    IT 

 










Legend :    VFR   Marginal VFR   IFR   Intensive IFR   Very Intensive IFR
Visi :
Ceiling :
>= 8 km
>= 3000ft
5 to 8 km
1000 to 3000 ft
1500m to 5 km
500 to 1000 ft
800 to 1500m
200 to 500 ft
< 800m
< 200 ft
Symbols :   Thunderstorms  Fog  Heavy snow  Heavy precipitations  Wind > 20 kt
SIGMETs :     Misc.  Thunderstorms  Icing  Turbulence  Mountain Waves  Volcanic Ashes






- Airport Elevation : 63 ft
- IATA code : BZM


EHWO - Woensdrecht Airbase

CURRENT METAR :
  • 130838Z AUTO 26014KT 220V300 4800 SHRA FEW010 SCT018 BKN022 14/13 Q1012 GRN

EXPIRED METARs :
  • 130834Z AUTO 26013KT 230V310 5000 -RADZ FEW010 BKN017 BKN021 14/13 Q1012 WHT
  • 130758Z AUTO 26012KT 220V310 9999 DZRA SCT011 BKN014 BKN017 15/13 Q1012 GRN
  • 130803Z AUTO 26011KT 230V310 9999 -DZ FEW009 SCT012 BKN015 15/13 Q1012 WHT
  • 130725Z AUTO 26012KT 220V310 9999 SCT009 BKN010 OVC012 15/13 Q1012 GRN
  • 130642Z AUTO 26011KT 230V300 9999 DZRA FEW007 SCT009 BKN010 14/13 Q1011 GRN
  • 130706Z AUTO 26011KT 230V300 9999 -DZ FEW008 SCT009 BKN010 15/13 Q1012 GRN
  • 130655Z AUTO 26014KT 220V300 9999 SCT008 BKN009 OVC011 15/13 Q1012 REDZ GRN
  • 130625Z AUTO 25012KT 220V290 9999 FEW007 SCT009 BKN010 15/13 Q1011 GRN
  • 130555Z AUTO 24013KT 210V290 9999 SCT007 BKN008 BKN010 FEW015CB 14/13 Q1011 GRN
  • 130525Z AUTO 23011KT 200V270 9999 FEW006 SCT007 BKN008 FEW015CB 14/13 Q1011 REDZ GRN
  • 130455Z AUTO 23012KT 210V270 9999 DZ SCT007 BKN008 BKN011 14/13 Q1011 GRN
  • 130442Z AUTO 23012KT 9999 -RADZ FEW006 SCT007 BKN008 14/13 Q1011 GRN
  • 130430Z AUTO 24011KT 210V270 9999 +DZRA SCT006 BKN007 BKN008 14/13 Q1011 GRN
  • 130425Z AUTO 24011KT 210V280 9999 -RA FEW006 SCT007 BKN008 13/13 Q1011 RERA REDZ GRN
  • 130402Z AUTO 24011KT 220V280 9999 -DZRA SCT007 BKN008 BKN011 13/13 Q1011 GRN

Expired Forecast.



MET'MAP, your aeronautical weather chart ! - Copyright ORBIFLY December 2007 - Disclaimer

ORBIFLY MET'MAP TEAM :

Programming & Development : Alexandra Zaïnal
Original concept : Baudouin d'Aumeries
Technical & hardware support : Manuel Goepfert
Assistance : Marc-Olivier Méhu




SOURCES & CREDITS :

   NOAA